Warsaw, Kentucky
Current Conditions -  °F | °C
As of 6:52 PM on Thursday 18 Dec 2014 (Local Time) from KCVG Reporting Station
Overcast Overcast  
Wind Chill: 24°   Ceiling: 6500
Heat Index: 29°   Visibility: 9mi
Dew Point: 19°   Wind: 5mph
Humidity: 67%   Direction: 330°NNW
Pressure: 30.22"   Gusts: NA
Location:  38.78°N, 84.9°W
Report Text: KCVG 182352Z 33004KT 9SM FEW025 OVC065 M02/M07 A3022 RMK AO2 SLP240 931000 60000 T10171072 11011 21022 53001
Loading
Personal Weather Stations






























Interactive Weather Map New forecast layout! Learn more

10-Day Weather Forecast

Advertisements
Track Severe Weather on mobile